sensor_id;sensor_type;location;lat;lon;timestamp;P1;durP1;ratioP1;P2;durP2;ratioP2
46751;SDS011;32497;48.936;9.270;2022-11-20T00:02:39;3.93;;;1.17;;
46751;SDS011;32497;48.936;9.270;2022-11-20T00:07:41;3.93;;;1.13;;
46751;SDS011;32497;48.936;9.270;2022-11-20T00:12:43;4.20;;;1.33;;
46751;SDS011;32497;48.936;9.270;2022-11-20T00:17:44;3.60;;;1.43;;
46751;SDS011;32497;48.936;9.270;2022-11-20T00:22:46;1.77;;;1.10;;
46751;SDS011;32497;48.936;9.270;2022-11-20T00:27:47;4.00;;;1.93;;
46751;SDS011;32497;48.936;9.270;2022-11-20T00:32:48;3.87;;;1.57;;
46751;SDS011;32497;48.936;9.270;2022-11-20T00:37:51;4.03;;;1.57;;
46751;SDS011;32497;48.936;9.270;2022-11-20T00:42:52;2.63;;;1.60;;
46751;SDS011;32497;48.936;9.270;2022-11-20T00:47:53;5.30;;;1.73;;
46751;SDS011;32497;48.936;9.270;2022-11-20T00:52:55;3.20;;;1.33;;
46751;SDS011;32497;48.936;9.270;2022-11-20T00:57:56;4.33;;;1.70;;
46751;SDS011;32497;48.936;9.270;2022-11-20T01:02:57;3.47;;;1.40;;
46751;SDS011;32497;48.936;9.270;2022-11-20T01:08:00;2.77;;;1.40;;
46751;SDS011;32497;48.936;9.270;2022-11-20T01:13:01;5.20;;;1.70;;
46751;SDS011;32497;48.936;9.270;2022-11-20T01:18:02;6.87;;;1.40;;
46751;SDS011;32497;48.936;9.270;2022-11-20T01:23:04;4.03;;;1.83;;
46751;SDS011;32497;48.936;9.270;2022-11-20T01:28:05;5.93;;;1.83;;
46751;SDS011;32497;48.936;9.270;2022-11-20T01:33:06;3.30;;;1.63;;
46751;SDS011;32497;48.936;9.270;2022-11-20T01:38:09;3.77;;;1.80;;
46751;SDS011;32497;48.936;9.270;2022-11-20T01:43:12;3.93;;;1.90;;
46751;SDS011;32497;48.936;9.270;2022-11-20T01:48:17;4.70;;;1.77;;
46751;SDS011;32497;48.936;9.270;2022-11-20T01:53:23;7.17;;;2.33;;
46751;SDS011;32497;48.936;9.270;2022-11-20T01:58:30;4.77;;;1.40;;
46751;SDS011;32497;48.936;9.270;2022-11-20T02:03:35;5.17;;;1.40;;
46751;SDS011;32497;48.936;9.270;2022-11-20T02:08:38;2.17;;;1.07;;
46751;SDS011;32497;48.936;9.270;2022-11-20T02:13:40;4.07;;;1.57;;
46751;SDS011;32497;48.936;9.270;2022-11-20T02:18:41;2.47;;;1.60;;
46751;SDS011;32497;48.936;9.270;2022-11-20T02:23:53;4.13;;;1.37;;
46751;SDS011;32497;48.936;9.270;2022-11-20T02:29:02;2.53;;;1.20;;
46751;SDS011;32497;48.936;9.270;2022-11-20T02:34:03;3.80;;;1.87;;
46751;SDS011;32497;48.936;9.270;2022-11-20T02:39:06;1.70;;;1.20;;
46751;SDS011;32497;48.936;9.270;2022-11-20T02:44:07;5.00;;;1.67;;
46751;SDS011;32497;48.936;9.270;2022-11-20T02:49:08;3.37;;;0.90;;
46751;SDS011;32497;48.936;9.270;2022-11-20T02:54:11;2.10;;;1.10;;
46751;SDS011;32497;48.936;9.270;2022-11-20T02:59:12;4.07;;;1.50;;
46751;SDS011;32497;48.936;9.270;2022-11-20T03:04:13;4.13;;;1.03;;
46751;SDS011;32497;48.936;9.270;2022-11-20T03:09:15;2.57;;;1.13;;
46751;SDS011;32497;48.936;9.270;2022-11-20T03:14:17;2.03;;;1.47;;
46751;SDS011;32497;48.936;9.270;2022-11-20T03:19:18;5.20;;;1.93;;
46751;SDS011;32497;48.936;9.270;2022-11-20T03:24:20;3.47;;;1.17;;
46751;SDS011;32497;48.936;9.270;2022-11-20T03:29:21;2.67;;;1.07;;
46751;SDS011;32497;48.936;9.270;2022-11-20T03:34:22;2.00;;;1.27;;
46751;SDS011;32497;48.936;9.270;2022-11-20T03:39:25;3.20;;;1.27;;
46751;SDS011;32497;48.936;9.270;2022-11-20T03:44:26;2.03;;;1.20;;
46751;SDS011;32497;48.936;9.270;2022-11-20T03:49:27;1.33;;;0.70;;
46751;SDS011;32497;48.936;9.270;2022-11-20T03:54:29;1.23;;;0.63;;
46751;SDS011;32497;48.936;9.270;2022-11-20T03:59:30;1.60;;;0.50;;
46751;SDS011;32497;48.936;9.270;2022-11-20T04:04:31;2.43;;;0.63;;
46751;SDS011;32497;48.936;9.270;2022-11-20T04:09:34;2.53;;;0.80;;
46751;SDS011;32497;48.936;9.270;2022-11-20T04:14:35;1.07;;;0.47;;
46751;SDS011;32497;48.936;9.270;2022-11-20T04:19:36;1.13;;;0.33;;
46751;SDS011;32497;48.936;9.270;2022-11-20T04:24:38;1.07;;;0.47;;
46751;SDS011;32497;48.936;9.270;2022-11-20T04:29:39;0.93;;;0.50;;
46751;SDS011;32497;48.936;9.270;2022-11-20T04:34:40;1.33;;;0.97;;
46751;SDS011;32497;48.936;9.270;2022-11-20T04:39:43;3.27;;;0.77;;
46751;SDS011;32497;48.936;9.270;2022-11-20T04:44:44;1.60;;;0.83;;
46751;SDS011;32497;48.936;9.270;2022-11-20T04:49:45;2.00;;;0.80;;
46751;SDS011;32497;48.936;9.270;2022-11-20T04:54:47;0.70;;;0.47;;
46751;SDS011;32497;48.936;9.270;2022-11-20T04:59:48;1.13;;;0.53;;
46751;SDS011;32497;48.936;9.270;2022-11-20T05:04:49;1.27;;;0.73;;
46751;SDS011;32497;48.936;9.270;2022-11-20T05:09:52;1.80;;;0.60;;
46751;SDS011;32497;48.936;9.270;2022-11-20T05:14:53;0.70;;;0.43;;
46751;SDS011;32497;48.936;9.270;2022-11-20T05:19:54;1.80;;;0.83;;
46751;SDS011;32497;48.936;9.270;2022-11-20T05:24:57;3.73;;;0.67;;
46751;SDS011;32497;48.936;9.270;2022-11-20T05:29:58;1.87;;;0.80;;
46751;SDS011;32497;48.936;9.270;2022-11-20T05:34:59;0.87;;;0.50;;
46751;SDS011;32497;48.936;9.270;2022-11-20T05:40:02;2.17;;;0.67;;
46751;SDS011;32497;48.936;9.270;2022-11-20T05:45:04;0.70;;;0.50;;
46751;SDS011;32497;48.936;9.270;2022-11-20T05:50:06;1.40;;;0.70;;
46751;SDS011;32497;48.936;9.270;2022-11-20T05:55:09;1.93;;;0.67;;
46751;SDS011;32497;48.936;9.270;2022-11-20T06:00:10;1.37;;;0.50;;
46751;SDS011;32497;48.936;9.270;2022-11-20T06:05:12;3.40;;;0.70;;
46751;SDS011;32497;48.936;9.270;2022-11-20T06:10:15;2.27;;;0.50;;
46751;SDS011;32497;48.936;9.270;2022-11-20T06:15:16;0.80;;;0.37;;
46751;SDS011;32497;48.936;9.270;2022-11-20T06:20:17;1.63;;;0.77;;
46751;SDS011;32497;48.936;9.270;2022-11-20T06:25:19;2.53;;;0.70;;
46751;SDS011;32497;48.936;9.270;2022-11-20T06:30:20;4.30;;;0.83;;
46751;SDS011;32497;48.936;9.270;2022-11-20T06:35:21;0.70;;;0.50;;
46751;SDS011;32497;48.936;9.270;2022-11-20T06:40:24;23.97;;;0.97;;
46751;SDS011;32497;48.936;9.270;2022-11-20T06:45:25;1.50;;;0.80;;
46751;SDS011;32497;48.936;9.270;2022-11-20T06:50:26;1.00;;;0.57;;
46751;SDS011;32497;48.936;9.270;2022-11-20T06:55:28;0.70;;;0.50;;
46751;SDS011;32497;48.936;9.270;2022-11-20T07:00:29;0.97;;;0.47;;
46751;SDS011;32497;48.936;9.270;2022-11-20T07:05:30;2.23;;;0.93;;
46751;SDS011;32497;48.936;9.270;2022-11-20T07:10:38;0.90;;;0.40;;
46751;SDS011;32497;48.936;9.270;2022-11-20T07:15:41;1.37;;;0.87;;
46751;SDS011;32497;48.936;9.270;2022-11-20T07:20:43;0.77;;;0.40;;
46751;SDS011;32497;48.936;9.270;2022-11-20T07:25:46;1.33;;;0.70;;
46751;SDS011;32497;48.936;9.270;2022-11-20T07:30:50;0.57;;;0.50;;
46751;SDS011;32497;48.936;9.270;2022-11-20T07:35:52;0.60;;;0.40;;
46751;SDS011;32497;48.936;9.270;2022-11-20T07:40:55;1.73;;;0.63;;
46751;SDS011;32497;48.936;9.270;2022-11-20T07:45:56;3.23;;;1.07;;
46751;SDS011;32497;48.936;9.270;2022-11-20T07:50:57;1.43;;;0.43;;
46751;SDS011;32497;48.936;9.270;2022-11-20T07:56:00;0.70;;;0.40;;
46751;SDS011;32497;48.936;9.270;2022-11-20T08:01:02;1.80;;;0.63;;
46751;SDS011;32497;48.936;9.270;2022-11-20T08:06:04;1.20;;;0.30;;
46751;SDS011;32497;48.936;9.270;2022-11-20T08:11:07;1.10;;;0.50;;
46751;SDS011;32497;48.936;9.270;2022-11-20T08:16:09;1.27;;;0.37;;
46751;SDS011;32497;48.936;9.270;2022-11-20T08:21:10;0.63;;;0.40;;
46751;SDS011;32497;48.936;9.270;2022-11-20T08:26:13;1.10;;;0.40;;
46751;SDS011;32497;48.936;9.270;2022-11-20T08:31:14;0.70;;;0.50;;
46751;SDS011;32497;48.936;9.270;2022-11-20T08:36:15;3.13;;;0.77;;
46751;SDS011;32497;48.936;9.270;2022-11-20T08:41:18;1.67;;;0.73;;
46751;SDS011;32497;48.936;9.270;2022-11-20T08:46:20;1.40;;;0.60;;
46751;SDS011;32497;48.936;9.270;2022-11-20T08:51:26;1.00;;;0.53;;
46751;SDS011;32497;48.936;9.270;2022-11-20T08:56:29;1.60;;;0.60;;
46751;SDS011;32497;48.936;9.270;2022-11-20T09:01:30;0.70;;;0.23;;
46751;SDS011;32497;48.936;9.270;2022-11-20T09:06:31;0.63;;;0.50;;
46751;SDS011;32497;48.936;9.270;2022-11-20T09:11:35;0.33;;;0.10;;
46751;SDS011;32497;48.936;9.270;2022-11-20T09:16:36;0.70;;;0.43;;
46751;SDS011;32497;48.936;9.270;2022-11-20T09:21:43;1.20;;;0.80;;
46751;SDS011;32497;48.936;9.270;2022-11-20T09:26:45;1.83;;;0.90;;
46751;SDS011;32497;48.936;9.270;2022-11-20T09:31:59;0.60;;;0.30;;
46751;SDS011;32497;48.936;9.270;2022-11-20T09:37:00;0.37;;;0.20;;
46751;SDS011;32497;48.936;9.270;2022-11-20T09:42:09;0.00;;;0.00;;
46751;SDS011;32497;48.936;9.270;2022-11-20T09:47:21;0.60;;;0.23;;
46751;SDS011;32497;48.936;9.270;2022-11-20T09:52:32;0.17;;;0.10;;
46751;SDS011;32497;48.936;9.270;2022-11-20T09:57:42;0.10;;;0.07;;
46751;SDS011;32497;48.936;9.270;2022-11-20T10:02:47;0.23;;;0.13;;
46751;SDS011;32497;48.936;9.270;2022-11-20T10:07:53;0.23;;;0.20;;
46751;SDS011;32497;48.936;9.270;2022-11-20T10:13:08;0.30;;;0.20;;
46751;SDS011;32497;48.936;9.270;2022-11-20T10:18:30;0.67;;;0.27;;
46751;SDS011;32497;48.936;9.270;2022-11-20T10:23:48;0.63;;;0.30;;
46751;SDS011;32497;48.936;9.270;2022-11-20T10:29:04;1.10;;;0.43;;
46751;SDS011;32497;48.936;9.270;2022-11-20T10:34:14;1.50;;;0.47;;
46751;SDS011;32497;48.936;9.270;2022-11-20T10:39:24;1.30;;;0.30;;
46751;SDS011;32497;48.936;9.270;2022-11-20T10:44:33;0.40;;;0.30;;
46751;SDS011;32497;48.936;9.270;2022-11-20T10:49:35;0.20;;;0.10;;
46751;SDS011;32497;48.936;9.270;2022-11-20T10:54:38;0.33;;;0.10;;
46751;SDS011;32497;48.936;9.270;2022-11-20T10:59:54;0.30;;;0.10;;
46751;SDS011;32497;48.936;9.270;2022-11-20T11:05:07;0.70;;;0.60;;
46751;SDS011;32497;48.936;9.270;2022-11-20T11:10:18;0.20;;;0.20;;
46751;SDS011;32497;48.936;9.270;2022-11-20T11:15:27;0.70;;;0.40;;
46751;SDS011;32497;48.936;9.270;2022-11-20T11:20:29;0.93;;;0.33;;
46751;SDS011;32497;48.936;9.270;2022-11-20T11:25:31;2.97;;;0.50;;
46751;SDS011;32497;48.936;9.270;2022-11-20T11:30:42;0.90;;;0.60;;
46751;SDS011;32497;48.936;9.270;2022-11-20T11:35:45;0.70;;;0.60;;
46751;SDS011;32497;48.936;9.270;2022-11-20T11:40:47;1.40;;;0.57;;
46751;SDS011;32497;48.936;9.270;2022-11-20T11:45:53;1.40;;;1.30;;
46751;SDS011;32497;48.936;9.270;2022-11-20T11:50:55;0.73;;;0.43;;
46751;SDS011;32497;48.936;9.270;2022-11-20T11:55:56;0.30;;;0.20;;
46751;SDS011;32497;48.936;9.270;2022-11-20T12:01:04;2.53;;;0.50;;
46751;SDS011;32497;48.936;9.270;2022-11-20T12:06:17;0.50;;;0.37;;
46751;SDS011;32497;48.936;9.270;2022-11-20T12:11:20;1.87;;;0.63;;
46751;SDS011;32497;48.936;9.270;2022-11-20T12:16:30;12.33;;;1.10;;
46751;SDS011;32497;48.936;9.270;2022-11-20T12:21:37;1.00;;;0.47;;
46751;SDS011;32497;48.936;9.270;2022-11-20T12:26:54;0.33;;;0.30;;
46751;SDS011;32497;48.936;9.270;2022-11-20T12:32:14;1.23;;;0.40;;
46751;SDS011;32497;48.936;9.270;2022-11-20T12:37:35;2.07;;;1.03;;
46751;SDS011;32497;48.936;9.270;2022-11-20T12:42:50;1.77;;;0.53;;
46751;SDS011;32497;48.936;9.270;2022-11-20T12:48:12;0.50;;;0.30;;
46751;SDS011;32497;48.936;9.270;2022-11-20T12:53:37;0.90;;;0.40;;
46751;SDS011;32497;48.936;9.270;2022-11-20T12:58:47;0.40;;;0.20;;
46751;SDS011;32497;48.936;9.270;2022-11-20T13:04:00;1.23;;;0.40;;
46751;SDS011;32497;48.936;9.270;2022-11-20T13:09:10;0.70;;;0.40;;
46751;SDS011;32497;48.936;9.270;2022-11-20T13:14:19;0.73;;;0.40;;
46751;SDS011;32497;48.936;9.270;2022-11-20T13:19:31;0.68;;;0.30;;
46751;SDS011;32497;48.936;9.270;2022-11-20T13:24:32;2.08;;;0.50;;
46751;SDS011;32497;48.936;9.270;2022-11-20T13:29:34;0.75;;;0.28;;
46751;SDS011;32497;48.936;9.270;2022-11-20T13:34:37;1.03;;;0.50;;
46751;SDS011;32497;48.936;9.270;2022-11-20T13:39:39;0.60;;;0.30;;
46751;SDS011;32497;48.936;9.270;2022-11-20T13:44:42;0.40;;;0.20;;
46751;SDS011;32497;48.936;9.270;2022-11-20T13:49:48;0.70;;;0.50;;
46751;SDS011;32497;48.936;9.270;2022-11-20T13:54:57;0.30;;;0.30;;
46751;SDS011;32497;48.936;9.270;2022-11-20T14:00:09;0.43;;;0.40;;
46751;SDS011;32497;48.936;9.270;2022-11-20T14:05:18;0.50;;;0.20;;
46751;SDS011;32497;48.936;9.270;2022-11-20T14:10:22;0.70;;;0.37;;
46751;SDS011;32497;48.936;9.270;2022-11-20T14:15:26;0.50;;;0.40;;
46751;SDS011;32497;48.936;9.270;2022-11-20T14:20:30;2.27;;;0.37;;
46751;SDS011;32497;48.936;9.270;2022-11-20T14:25:31;0.33;;;0.10;;
46751;SDS011;32497;48.936;9.270;2022-11-20T14:30:36;0.60;;;0.30;;
46751;SDS011;32497;48.936;9.270;2022-11-20T14:35:45;0.97;;;0.50;;
46751;SDS011;32497;48.936;9.270;2022-11-20T14:40:48;0.30;;;0.20;;
46751;SDS011;32497;48.936;9.270;2022-11-20T14:45:52;0.27;;;0.20;;
46751;SDS011;32497;48.936;9.270;2022-11-20T14:50:59;0.20;;;0.10;;
46751;SDS011;32497;48.936;9.270;2022-11-20T14:56:00;0.33;;;0.30;;
46751;SDS011;32497;48.936;9.270;2022-11-20T15:01:03;0.77;;;0.37;;
46751;SDS011;32497;48.936;9.270;2022-11-20T15:06:09;0.30;;;0.20;;
46751;SDS011;32497;48.936;9.270;2022-11-20T15:11:16;0.53;;;0.27;;
46751;SDS011;32497;48.936;9.270;2022-11-20T15:16:20;2.47;;;0.40;;
46751;SDS011;32497;48.936;9.270;2022-11-20T15:21:23;0.93;;;0.13;;
46751;SDS011;32497;48.936;9.270;2022-11-20T15:26:25;0.57;;;0.33;;
46751;SDS011;32497;48.936;9.270;2022-11-20T15:31:28;2.00;;;0.53;;
46751;SDS011;32497;48.936;9.270;2022-11-20T15:36:30;1.33;;;0.30;;
46751;SDS011;32497;48.936;9.270;2022-11-20T15:41:31;0.37;;;0.30;;
46751;SDS011;32497;48.936;9.270;2022-11-20T15:46:33;0.70;;;0.30;;
46751;SDS011;32497;48.936;9.270;2022-11-20T15:51:39;0.53;;;0.30;;
46751;SDS011;32497;48.936;9.270;2022-11-20T15:56:43;3.63;;;0.60;;
46751;SDS011;32497;48.936;9.270;2022-11-20T16:01:44;0.47;;;0.13;;
46751;SDS011;32497;48.936;9.270;2022-11-20T16:06:46;0.60;;;0.43;;
46751;SDS011;32497;48.936;9.270;2022-11-20T16:11:47;2.17;;;0.40;;
46751;SDS011;32497;48.936;9.270;2022-11-20T16:16:49;0.50;;;0.10;;
46751;SDS011;32497;48.936;9.270;2022-11-20T16:21:51;1.60;;;0.30;;
46751;SDS011;32497;48.936;9.270;2022-11-20T16:26:52;0.70;;;0.20;;
46751;SDS011;32497;48.936;9.270;2022-11-20T16:31:54;1.00;;;0.37;;
46751;SDS011;32497;48.936;9.270;2022-11-20T16:36:57;1.37;;;0.53;;
46751;SDS011;32497;48.936;9.270;2022-11-20T16:41:58;1.33;;;0.47;;
46751;SDS011;32497;48.936;9.270;2022-11-20T16:47:04;1.70;;;0.50;;
46751;SDS011;32497;48.936;9.270;2022-11-20T16:52:06;1.80;;;0.50;;
46751;SDS011;32497;48.936;9.270;2022-11-20T16:57:07;0.77;;;0.30;;
46751;SDS011;32497;48.936;9.270;2022-11-20T17:02:08;1.23;;;0.60;;
46751;SDS011;32497;48.936;9.270;2022-11-20T17:07:11;3.70;;;0.93;;
46751;SDS011;32497;48.936;9.270;2022-11-20T17:12:12;1.37;;;0.77;;
46751;SDS011;32497;48.936;9.270;2022-11-20T17:17:13;1.37;;;0.93;;
46751;SDS011;32497;48.936;9.270;2022-11-20T17:22:15;2.10;;;0.90;;
46751;SDS011;32497;48.936;9.270;2022-11-20T17:27:16;4.63;;;0.70;;
46751;SDS011;32497;48.936;9.270;2022-11-20T17:32:17;3.07;;;0.80;;
46751;SDS011;32497;48.936;9.270;2022-11-20T17:37:20;1.27;;;0.40;;
46751;SDS011;32497;48.936;9.270;2022-11-20T17:42:21;1.83;;;1.00;;
46751;SDS011;32497;48.936;9.270;2022-11-20T17:47:22;0.80;;;0.47;;
46751;SDS011;32497;48.936;9.270;2022-11-20T17:52:25;2.60;;;0.90;;
46751;SDS011;32497;48.936;9.270;2022-11-20T17:57:26;1.30;;;0.70;;
46751;SDS011;32497;48.936;9.270;2022-11-20T18:02:27;0.40;;;0.20;;
46751;SDS011;32497;48.936;9.270;2022-11-20T18:07:29;1.10;;;0.53;;
46751;SDS011;32497;48.936;9.270;2022-11-20T18:12:30;1.40;;;0.63;;
46751;SDS011;32497;48.936;9.270;2022-11-20T18:17:31;0.90;;;0.73;;
46751;SDS011;32497;48.936;9.270;2022-11-20T18:22:33;0.67;;;0.40;;
46751;SDS011;32497;48.936;9.270;2022-11-20T18:27:35;0.67;;;0.30;;
46751;SDS011;32497;48.936;9.270;2022-11-20T18:32:36;0.30;;;0.30;;
46751;SDS011;32497;48.936;9.270;2022-11-20T18:37:38;3.67;;;0.67;;
46751;SDS011;32497;48.936;9.270;2022-11-20T18:42:39;0.43;;;0.33;;
46751;SDS011;32497;48.936;9.270;2022-11-20T18:47:40;0.97;;;0.47;;
46751;SDS011;32497;48.936;9.270;2022-11-20T18:52:43;0.63;;;0.27;;
46751;SDS011;32497;48.936;9.270;2022-11-20T18:57:44;5.00;;;0.60;;
46751;SDS011;32497;48.936;9.270;2022-11-20T19:02:45;1.50;;;0.60;;
46751;SDS011;32497;48.936;9.270;2022-11-20T19:07:47;0.30;;;0.23;;
46751;SDS011;32497;48.936;9.270;2022-11-20T19:12:48;0.93;;;0.20;;
46751;SDS011;32497;48.936;9.270;2022-11-20T19:17:49;0.70;;;0.37;;
46751;SDS011;32497;48.936;9.270;2022-11-20T19:22:52;0.40;;;0.10;;
46751;SDS011;32497;48.936;9.270;2022-11-20T19:27:53;2.17;;;0.13;;
46751;SDS011;32497;48.936;9.270;2022-11-20T19:32:54;0.43;;;0.20;;
46751;SDS011;32497;48.936;9.270;2022-11-20T19:37:57;0.70;;;0.40;;
46751;SDS011;32497;48.936;9.270;2022-11-20T19:42:59;0.83;;;0.27;;
46751;SDS011;32497;48.936;9.270;2022-11-20T19:48:00;0.73;;;0.20;;
46751;SDS011;32497;48.936;9.270;2022-11-20T19:53:03;2.60;;;0.60;;
46751;SDS011;32497;48.936;9.270;2022-11-20T19:58:04;2.77;;;0.50;;
46751;SDS011;32497;48.936;9.270;2022-11-20T20:03:05;0.50;;;0.47;;
46751;SDS011;32497;48.936;9.270;2022-11-20T20:08:08;0.10;;;0.10;;
46751;SDS011;32497;48.936;9.270;2022-11-20T20:13:09;0.20;;;0.20;;
46751;SDS011;32497;48.936;9.270;2022-11-20T20:18:10;0.63;;;0.30;;
46751;SDS011;32497;48.936;9.270;2022-11-20T20:23:12;1.33;;;0.30;;
46751;SDS011;32497;48.936;9.270;2022-11-20T20:28:13;0.10;;;0.07;;
46751;SDS011;32497;48.936;9.270;2022-11-20T20:33:15;0.20;;;0.20;;
46751;SDS011;32497;48.936;9.270;2022-11-20T20:38:17;0.00;;;0.00;;
46751;SDS011;32497;48.936;9.270;2022-11-20T20:43:18;0.00;;;0.00;;
46751;SDS011;32497;48.936;9.270;2022-11-20T20:48:20;0.00;;;0.00;;
46751;SDS011;32497;48.936;9.270;2022-11-20T20:53:24;0.00;;;0.00;;
46751;SDS011;32497;48.936;9.270;2022-11-20T20:58:25;0.00;;;0.00;;
46751;SDS011;32497;48.936;9.270;2022-11-20T21:03:27;0.27;;;0.20;;
46751;SDS011;32497;48.936;9.270;2022-11-20T21:08:31;0.87;;;0.10;;
46751;SDS011;32497;48.936;9.270;2022-11-20T21:13:33;0.00;;;0.00;;
46751;SDS011;32497;48.936;9.270;2022-11-20T21:18:35;0.17;;;0.07;;
46751;SDS011;32497;48.936;9.270;2022-11-20T21:23:37;0.00;;;0.00;;
46751;SDS011;32497;48.936;9.270;2022-11-20T21:28:39;0.43;;;0.10;;
46751;SDS011;32497;48.936;9.270;2022-11-20T21:33:40;0.00;;;0.00;;
46751;SDS011;32497;48.936;9.270;2022-11-20T21:38:45;0.67;;;0.10;;
46751;SDS011;32497;48.936;9.270;2022-11-20T21:43:47;0.00;;;0.00;;
46751;SDS011;32497;48.936;9.270;2022-11-20T21:48:50;0.00;;;0.00;;
46751;SDS011;32497;48.936;9.270;2022-11-20T21:53:53;0.10;;;0.07;;
46751;SDS011;32497;48.936;9.270;2022-11-20T21:58:54;3.03;;;0.33;;
46751;SDS011;32497;48.936;9.270;2022-11-20T22:03:56;0.00;;;0.00;;
46751;SDS011;32497;48.936;9.270;2022-11-20T22:09:00;0.30;;;0.10;;
46751;SDS011;32497;48.936;9.270;2022-11-20T22:14:01;0.20;;;0.07;;
46751;SDS011;32497;48.936;9.270;2022-11-20T22:19:03;0.10;;;0.00;;
46751;SDS011;32497;48.936;9.270;2022-11-20T22:24:06;0.10;;;0.03;;
46751;SDS011;32497;48.936;9.270;2022-11-20T22:29:10;0.10;;;0.10;;
46751;SDS011;32497;48.936;9.270;2022-11-20T22:34:13;0.20;;;0.20;;
46751;SDS011;32497;48.936;9.270;2022-11-20T22:39:16;0.57;;;0.13;;
46751;SDS011;32497;48.936;9.270;2022-11-20T22:44:17;0.13;;;0.00;;
46751;SDS011;32497;48.936;9.270;2022-11-20T22:49:18;0.00;;;0.00;;
46751;SDS011;32497;48.936;9.270;2022-11-20T22:54:20;0.00;;;0.00;;
46751;SDS011;32497;48.936;9.270;2022-11-20T22:59:21;0.13;;;0.10;;
46751;SDS011;32497;48.936;9.270;2022-11-20T23:04:22;0.00;;;0.00;;
46751;SDS011;32497;48.936;9.270;2022-11-20T23:09:25;0.30;;;0.13;;
46751;SDS011;32497;48.936;9.270;2022-11-20T23:14:26;0.03;;;0.00;;
46751;SDS011;32497;48.936;9.270;2022-11-20T23:19:27;1.20;;;0.20;;
46751;SDS011;32497;48.936;9.270;2022-11-20T23:24:29;0.13;;;0.13;;
46751;SDS011;32497;48.936;9.270;2022-11-20T23:29:30;0.10;;;0.00;;
46751;SDS011;32497;48.936;9.270;2022-11-20T23:34:31;0.10;;;0.00;;
46751;SDS011;32497;48.936;9.270;2022-11-20T23:39:33;0.53;;;0.23;;
46751;SDS011;32497;48.936;9.270;2022-11-20T23:44:34;0.10;;;0.03;;
46751;SDS011;32497;48.936;9.270;2022-11-20T23:49:35;0.00;;;0.00;;
46751;SDS011;32497;48.936;9.270;2022-11-20T23:54:38;0.13;;;0.10;;
46751;SDS011;32497;48.936;9.270;2022-11-20T23:59:39;0.23;;;0.23;;
